createdAt,value
2022-10-05T00:00:54.253Z,15.25
2022-10-05T00:04:11.156Z,14.77
2022-10-05T00:07:19.887Z,16.70
2022-10-05T00:10:24.894Z,10.13
2022-10-05T00:13:31.347Z,11.40
2022-10-05T00:16:36.154Z,8.75
2022-10-05T00:19:40.336Z,9.57
2022-10-05T00:22:44.400Z,14.57
2022-10-05T00:25:48.761Z,15.77
2022-10-05T00:28:54.682Z,10.75
2022-10-05T00:31:59.682Z,13.73
2022-10-05T00:35:03.404Z,17.30
2022-10-05T00:38:07.214Z,11.13
2022-10-05T00:41:32.827Z,14.97
2022-10-05T00:44:52.364Z,19.05
2022-10-05T00:48:27.090Z,12.82
2022-10-05T00:51:34.470Z,14.38
2022-10-05T00:54:48.021Z,11.53
2022-10-05T00:58:22.097Z,12.97
2022-10-05T01:01:58.226Z,9.60
2022-10-05T01:05:22.267Z,8.60
2022-10-05T01:08:38.520Z,13.73
2022-10-05T01:11:48.412Z,11.03
2022-10-05T01:15:13.831Z,11.23
2022-10-05T01:18:39.188Z,10.00
2022-10-05T01:22:21.391Z,11.35
2022-10-05T01:25:52.491Z,9.52
2022-10-05T01:29:20.768Z,9.10
2022-10-05T01:33:03.737Z,9.53
2022-10-05T01:36:35.728Z,8.13
2022-10-05T01:40:28.738Z,12.20
2022-10-05T01:43:53.677Z,12.55
2022-10-05T01:47:18.276Z,9.73
2022-10-05T01:50:33.510Z,9.53
2022-10-05T01:54:03.915Z,17.85
2022-10-05T01:57:26.198Z,15.13
2022-10-05T02:00:30.569Z,14.27
2022-10-05T02:03:48.375Z,14.87
2022-10-05T02:06:53.540Z,16.80
2022-10-05T02:10:31.622Z,12.98
2022-10-05T02:13:48.145Z,12.98
2022-10-05T02:16:53.868Z,16.52
2022-10-05T02:20:04.831Z,16.03
2022-10-05T02:23:17.631Z,19.63
2022-10-05T02:26:21.973Z,16.25
2022-10-05T02:29:31.583Z,17.45
2022-10-05T02:32:43.160Z,18.67
2022-10-05T02:35:46.620Z,16.43
2022-10-05T02:39:00.720Z,16.43
2022-10-05T02:42:16.931Z,9.32
2022-10-05T02:45:32.659Z,12.60
2022-10-05T02:49:04.217Z,11.75
2022-10-05T02:52:18.412Z,6.03
2022-10-05T02:55:46.915Z,4.73
2022-10-05T02:59:14.929Z,6.55
2022-10-05T03:02:33.485Z,8.43
2022-10-05T03:05:47.568Z,8.77
2022-10-05T03:09:02.483Z,6.83
2022-10-05T03:12:26.223Z,8.27
2022-10-05T03:15:42.934Z,5.70
2022-10-05T03:19:28.981Z,6.15
2022-10-05T03:22:45.301Z,5.10
2022-10-05T03:25:54.504Z,9.40
2022-10-05T03:29:25.392Z,6.57
2022-10-05T03:32:32.110Z,8.15
2022-10-05T03:36:04.404Z,7.93
2022-10-05T03:39:11.775Z,7.70
2022-10-05T03:42:29.988Z,6.07
2022-10-05T03:45:39.489Z,5.70
2022-10-05T03:48:58.352Z,10.80
2022-10-05T03:52:09.989Z,5.38
2022-10-05T03:55:34.944Z,7.65
2022-10-05T03:58:51.951Z,16.87
2022-10-05T04:01:56.987Z,9.27
2022-10-05T04:05:06.405Z,9.32
2022-10-05T04:08:55.952Z,11.07
2022-10-05T04:12:17.289Z,6.32
2022-10-05T04:15:30.999Z,6.50
2022-10-05T04:18:42.473Z,5.10
2022-10-05T04:22:02.443Z,6.90
2022-10-05T04:25:24.634Z,5.45
2022-10-05T04:28:54.359Z,3.97
2022-10-05T04:32:01.677Z,7.57
2022-10-05T04:35:26.761Z,7.17
2022-10-05T04:38:51.822Z,9.27
2022-10-05T04:42:05.845Z,7.78
2022-10-05T04:45:46.445Z,9.45
2022-10-05T04:49:00.188Z,8.57
2022-10-05T04:52:14.684Z,5.53
2022-10-05T04:55:57.509Z,5.47
2022-10-05T04:59:25.841Z,15.18
2022-10-05T05:03:10.619Z,5.50
2022-10-05T05:06:35.964Z,11.87
2022-10-05T05:09:48.854Z,7.13
2022-10-05T05:13:35.251Z,4.95
2022-10-05T05:16:42.291Z,6.18
2022-10-05T05:20:10.963Z,5.82
2022-10-05T05:23:55.768Z,8.47
2022-10-05T05:27:11.472Z,12.23
2022-10-05T05:30:25.696Z,11.68
2022-10-05T05:33:37.968Z,8.50
2022-10-05T05:36:56.403Z,5.68
2022-10-05T05:40:16.548Z,7.20
2022-10-05T05:43:27.759Z,6.53
2022-10-05T05:47:02.343Z,5.85
2022-10-05T05:50:21.499Z,5.45
2022-10-05T05:53:45.487Z,5.97
2022-10-05T05:57:11.823Z,5.47
2022-10-05T06:00:16.116Z,5.80
2022-10-05T06:03:34.235Z,5.30
2022-10-05T06:06:43.338Z,6.20
2022-10-05T06:09:54.408Z,5.80
2022-10-05T06:13:14.252Z,8.13
2022-10-05T06:16:33.352Z,7.03
2022-10-05T06:19:39.368Z,6.97
2022-10-05T06:22:47.070Z,5.25
2022-10-05T06:26:12.371Z,8.85
2022-10-05T06:29:24.254Z,18.37
2022-10-05T06:32:31.314Z,7.00
2022-10-05T06:36:07.483Z,4.68
2022-10-05T06:39:54.630Z,9.43
2022-10-05T06:43:10.651Z,5.15
2022-10-05T06:46:42.543Z,13.63
2022-10-05T06:50:39.125Z,9.67
2022-10-05T06:54:24.104Z,8.88
2022-10-05T06:57:45.836Z,7.95
2022-10-05T07:01:11.540Z,10.27
2022-10-05T07:04:37.773Z,3.87
2022-10-05T07:08:04.919Z,2.70
2022-10-05T07:11:42.042Z,6.00
2022-10-05T07:15:10.457Z,5.03
2022-10-05T07:18:23.485Z,8.95
2022-10-05T07:21:56.022Z,7.73
2022-10-05T07:25:03.353Z,6.00
2022-10-05T07:28:23.306Z,4.38
2022-10-05T07:31:38.874Z,8.85
2022-10-05T07:35:35.385Z,6.85
2022-10-05T07:38:46.675Z,6.37
2022-10-05T07:42:24.265Z,5.13
2022-10-05T07:45:47.589Z,5.43
2022-10-05T07:49:03.859Z,7.03
2022-10-05T07:52:45.700Z,6.70
2022-10-05T07:55:54.928Z,7.83
2022-10-05T07:59:08.341Z,9.73
2022-10-05T08:03:05.411Z,7.45
2022-10-05T08:06:15.195Z,5.43
2022-10-05T08:09:48.163Z,10.88
2022-10-05T08:13:09.182Z,6.27
2022-10-05T08:16:14.131Z,6.23
2022-10-05T08:19:27.005Z,7.10
2022-10-05T08:22:41.602Z,7.50
2022-10-05T08:25:58.901Z,11.52
2022-10-05T08:29:06.711Z,11.83
2022-10-05T08:32:51.268Z,9.47
2022-10-05T08:36:13.145Z,10.55
2022-10-05T08:39:20.517Z,10.75
2022-10-05T08:42:37.895Z,13.00
2022-10-05T08:46:10.162Z,6.60
2022-10-05T08:49:22.244Z,9.00
2022-10-05T08:52:47.748Z,8.65
2022-10-05T08:56:28.827Z,11.27
2022-10-05T08:59:56.696Z,12.25
2022-10-05T09:03:24.101Z,11.57
2022-10-05T09:06:47.954Z,5.27
2022-10-05T09:10:14.559Z,5.40
2022-10-05T09:13:20.524Z,5.78
2022-10-05T09:16:42.368Z,7.40
2022-10-05T09:20:24.177Z,10.53
2022-10-05T09:23:43.871Z,9.43
2022-10-05T09:27:14.916Z,10.00
2022-10-05T09:30:29.388Z,8.00
2022-10-05T09:33:58.884Z,20.75
2022-10-05T09:37:30.909Z,9.27
2022-10-05T09:40:42.004Z,8.70
2022-10-05T09:44:18.050Z,10.60
2022-10-05T09:47:30.802Z,12.60
2022-10-05T09:50:54.948Z,12.13
2022-10-05T09:54:11.298Z,12.27
2022-10-05T09:57:37.542Z,17.97
2022-10-05T10:01:16.027Z,25.50
2022-10-05T10:05:11.164Z,18.13
2022-10-05T10:08:21.180Z,19.55
2022-10-05T10:11:44.970Z,17.40
2022-10-05T10:14:51.493Z,19.20
2022-10-05T10:18:13.696Z,24.15
2022-10-05T10:21:26.575Z,25.40
2022-10-05T10:24:57.147Z,27.90
2022-10-05T10:28:30.864Z,27.10
2022-10-05T10:31:59.228Z,24.60
2022-10-05T10:35:08.551Z,23.25
2022-10-05T10:38:27.074Z,21.63
2022-10-05T10:41:37.932Z,24.00
2022-10-05T10:45:13.836Z,25.03
2022-10-05T10:48:20.021Z,22.87
2022-10-05T10:51:31.721Z,14.98
2022-10-05T10:54:53.801Z,16.08
2022-10-05T10:58:39.151Z,19.42
2022-10-05T11:01:54.621Z,11.30
2022-10-05T11:05:22.064Z,11.77
2022-10-05T11:09:03.838Z,13.90
2022-10-05T11:12:10.805Z,12.70
2022-10-05T11:15:52.870Z,12.98
2022-10-05T11:19:20.690Z,9.67
2022-10-05T11:22:36.000Z,13.53
2022-10-05T11:26:00.496Z,8.23
2022-10-05T11:29:26.891Z,6.95
2022-10-05T11:32:54.365Z,9.57
2022-10-05T11:36:20.732Z,13.63
2022-10-05T11:39:40.232Z,10.83
2022-10-05T11:43:12.357Z,12.68
2022-10-05T11:46:29.703Z,12.00
2022-10-05T11:49:40.554Z,14.35
2022-10-05T11:53:02.307Z,15.40
2022-10-05T11:56:15.519Z,16.83
2022-10-05T11:59:28.174Z,9.38
2022-10-05T12:02:56.480Z,15.80
2022-10-05T12:06:28.964Z,17.95
2022-10-05T12:10:03.589Z,11.03
2022-10-05T12:13:21.032Z,13.37
2022-10-05T12:16:32.987Z,13.65
2022-10-05T12:20:20.169Z,15.32
2022-10-05T12:23:47.334Z,13.65
2022-10-05T12:27:26.288Z,12.87
2022-10-05T12:30:54.933Z,14.40
2022-10-05T12:34:43.088Z,18.17
2022-10-05T12:38:26.876Z,14.15
2022-10-05T12:41:43.541Z,14.00
2022-10-05T12:45:10.850Z,13.43
2022-10-05T12:48:28.454Z,15.57
2022-10-05T12:51:57.535Z,15.55
2022-10-05T12:55:10.662Z,15.95
2022-10-05T12:58:22.542Z,14.13
2022-10-05T13:01:45.251Z,16.37
2022-10-05T13:05:03.115Z,15.37
2022-10-05T13:08:37.554Z,10.77
2022-10-05T13:11:56.867Z,17.25
2022-10-05T13:15:08.895Z,15.70
2022-10-05T13:18:55.178Z,14.13
2022-10-05T13:22:09.105Z,16.43
2022-10-05T13:25:31.157Z,20.08
2022-10-05T13:28:57.081Z,14.25
2022-10-05T13:32:14.657Z,16.80
2022-10-05T13:35:44.141Z,16.33
2022-10-05T13:38:58.930Z,12.97
2022-10-05T13:42:22.711Z,10.55
2022-10-05T13:45:46.334Z,21.77
2022-10-05T13:49:05.973Z,21.00
2022-10-05T13:52:38.962Z,12.33
2022-10-05T13:56:02.815Z,9.33
2022-10-05T13:59:30.483Z,11.15
2022-10-05T14:02:42.440Z,13.43
2022-10-05T14:05:58.242Z,13.95
2022-10-05T14:09:02.553Z,20.33
2022-10-05T14:12:06.170Z,20.03
2022-10-05T14:15:42.229Z,17.60
2022-10-05T14:18:53.297Z,19.30
2022-10-05T14:22:01.091Z,16.75
2022-10-05T14:25:08.752Z,18.27
2022-10-05T14:28:13.706Z,17.00
2022-10-05T14:31:32.806Z,15.13
2022-10-05T14:34:57.879Z,13.88
2022-10-05T14:38:08.714Z,18.75
2022-10-05T14:41:13.648Z,11.80
2022-10-05T14:48:02.633Z,15.05
2022-10-05T14:51:12.244Z,13.75
2022-10-05T14:54:45.499Z,18.98
2022-10-05T14:58:15.096Z,19.67
2022-10-05T15:01:40.210Z,18.07
2022-10-05T15:04:52.592Z,16.15
2022-10-05T15:08:02.678Z,16.70
2022-10-05T15:11:19.173Z,16.65
2022-10-05T15:14:27.062Z,14.67
2022-10-05T15:17:44.516Z,12.90
2022-10-05T15:20:47.800Z,14.20
